• Join FlightAware (Why Join?)
  • Login
  • US Flag 
07:49PM EDT


 

Airport Tracker/Info


-or-


 

Live Flight TrackerFlight Track Log ✈ UCA3598 ✈ 18-Nov-2013 ✈ KIAD - KBGM

Flight Track Log - Related Links

Times and Time Zones

All times are in EST time to prevent confusion due to time zone crossing. See the UCA3598 flight status page for this flight to view local times or setup timezone preferences in your user account.

Time Position Orientation Groundspeed Altitude Reporting Facility
EST Latitude Longitude Course Direction KTS MPH feet Rate Location/Type
11:55PM 39.0389 -77.4383 North 156 180 3,700  Level Washington Center
11:56PM 39.0850 -77.4233 14° North 162 186 5,200 1,320 Climbing Washington Center
11:57PM 39.1331 -77.4139 North 162 186 6,500 1,200 Climbing Washington Center
11:58PM 39.4022 -77.2624 North  Level Estimated
11:58PM 39.1811 -77.4097 North 167 192 7,700  Level Washington Center
11:59PM 39.4780 -77.2293 North  Level Estimated
11:59PM 39.2289 -77.4164 354° North 167 192 9,400  Level Washington Center
12:00AM 39.2767 -77.4203 356° North 167 192 10,400 960 Climbing Washington Center
12:01AM 39.3267 -77.4242 357° North 167 192 11,400 840 Climbing Washington Center
12:02AM 39.3767 -77.4306 354° North 172 198 12,200 960 Climbing Washington Center
12:04AM 39.4753 -77.4256 North 198 228 14,300 1,080 Climbing New York Center
12:05AM 39.5314 -77.3931 24° Northeast 205 236 15,500 1,140 Climbing New York Center
12:06AM 39.5939 -77.3586 23° Northeast 212 244 16,600 1,020 Climbing New York Center
12:07AM 39.6539 -77.3264 22° Northeast 225 259 17,600 900 Climbing New York Center
12:08AM 39.7161 -77.2944 22° Northeast 231 266 18,400 660 Climbing New York Center
12:09AM 39.7786 -77.2622 22° Northeast 238 274 19,000 240 Climbing New York Center
12:10AM 39.8469 -77.2308 19° North 251 289 19,000  Level New York Center
12:11AM 39.9242 -77.1919 21° North 276 318 19,000  Level New York Center
12:12AM 40.0014 -77.1531 21° North 281 323 19,000  Level New York Center
12:13AM 40.0681 -77.1156 23° Northeast 287 330 19,000  Level New York Center
12:14AM 40.1492 -77.0769 20° North 277 319 19,000  Level New York Center
12:15AM 40.2158 -77.0419 22° Northeast 277 319 19,000  Level New York Center
12:16AM 40.2950 -77.0031 21° North 277 319 19,000  Level New York Center
12:17AM 40.3614 -76.9681 22° Northeast 277 319 19,000  Level New York Center
12:18AM 40.4428 -76.9264 21° North 277 319 19,000  Level New York Center
12:19AM 40.5072 -76.8911 23° Northeast 282 325 19,000  Level New York Center
12:20AM 40.5906 -76.8492 21° North 282 325 19,000  Level New York Center
12:21AM 40.6656 -76.8094 22° Northeast 289 333 19,000  Level New York Center
12:22AM 40.7406 -76.7694 22° Northeast 284 327 19,000  Level New York Center
12:23AM 40.8111 -76.7344 21° North 279 321 19,000  Level New York Center
12:24AM 40.8858 -76.6972 21° North 279 321 19,000  Level New York Center
12:25AM 40.9567 -76.6592 22° Northeast 279 321 19,000  Level New York Center
12:26AM 41.0275 -76.6186 23° Northeast 274 315 19,000  Level New York Center
12:27AM 41.1003 -76.5781 23° Northeast 279 321 19,000  Level New York Center
12:28AM 41.1644 -76.5450 21° North 279 321 19,000  Level New York Center
12:29AM 41.2350 -76.5069 22° Northeast 279 321 19,000  Level New York Center
12:30AM 41.3161 -76.4642 22° Northeast 279 321 19,000  Level New York Center
12:31AM 41.3911 -76.4233 22° Northeast 279 321 19,000 -120 Level New York Center
12:32AM 41.4658 -76.3853 21° North 279 321 18,800 -660 Descending New York Center
12:33AM 41.5294 -76.3131 40° Northeast 308 354 17,700 -1,200 Descending New York Center
12:34AM 41.5975 -76.2411 38° Northeast 319 367 16,500 -1,500 Descending New York Center
12:35AM 41.6694 -76.1664 38° Northeast 302 348 14,800 -1,800 Descending New York Center
12:36AM 41.7308 -76.0992 39° Northeast 291 335 12,900 -1,920 Descending New York Center
12:37AM 41.7925 -76.0289 40° Northeast 291 335 11,000 -1,980 Descending New York Center
12:38AM 41.8469 -75.9747 37° Northeast 286 329 9,000 -1,980 Descending New York Center
12:39AM 41.9014 -75.9178 38° Northeast 262 302 7,100 -2,100 Descending New York Center
12:40AM 41.9603 -75.8525 39° Northeast 252 290 4,800 -1,320 Descending New York Center
12:41AM 42.0119 -75.8147 29° Northeast 231 266 4,500 -180 Descending New York Center
12:42AM 42.0478 -75.8508 323° Northwest 164 189 4,500 -240 Level New York Center
12:43AM 42.0961 -75.8883 330° Northwest 172 198 4,100 -600 Descending New York Center
12:44AM 42.1306 -75.9161 329° Northwest 172 198 3,300 -720 Descending New York Center
12:45AM 42.1567 -75.9375 329° Northwest 138 159 2,700 -660 Descending New York Center
12:46AM 42.1806 -75.9619 323° Northwest 114 131 2,000 -420 Descending New York Center
12:47AM 42.2047 -75.9806 330° Northwest 114 131 1,900 -120 Descending New York Center